sensor_id;sensor_type;location;lat;lon;timestamp;pressure;altitude;pressure_sealevel;temperature;humidity
7990;BME280;4040;42.848;23.034;2022-09-14T00:09:00;94856.03;;;9.83;100.00
7990;BME280;4040;42.848;23.034;2022-09-14T00:14:49;94855.31;;;9.79;100.00
7990;BME280;4040;42.848;23.034;2022-09-14T00:20:38;94863.41;;;9.72;100.00
7990;BME280;4040;42.848;23.034;2022-09-14T00:26:28;94865.28;;;9.82;100.00
7990;BME280;4040;42.848;23.034;2022-09-14T00:32:16;94866.22;;;9.51;100.00
7990;BME280;4040;42.848;23.034;2022-09-14T00:38:05;94870.16;;;9.36;100.00
7990;BME280;4040;42.848;23.034;2022-09-14T00:43:59;94886.31;;;9.22;100.00
7990;BME280;4040;42.848;23.034;2022-09-14T00:49:48;94884.81;;;9.17;100.00
7990;BME280;4040;42.848;23.034;2022-09-14T00:55:36;94894.81;;;9.13;100.00
7990;BME280;4040;42.848;23.034;2022-09-14T01:01:27;94894.06;;;9.02;100.00
7990;BME280;4040;42.848;23.034;2022-09-14T01:11:30;94884.84;;;9.14;100.00
7990;BME280;4040;42.848;23.034;2022-09-14T01:17:35;94882.88;;;9.25;100.00
7990;BME280;4040;42.848;23.034;2022-09-14T01:23:29;94883.25;;;9.27;100.00
7990;BME280;4040;42.848;23.034;2022-09-14T01:29:28;94883.31;;;9.13;100.00
7990;BME280;4040;42.848;23.034;2022-09-14T01:35:23;94877.88;;;9.23;100.00
7990;BME280;4040;42.848;23.034;2022-09-14T01:41:16;94882.59;;;8.88;100.00
7990;BME280;4040;42.848;23.034;2022-09-14T01:47:10;94872.22;;;9.04;100.00
7990;BME280;4040;42.848;23.034;2022-09-14T01:53:06;94871.84;;;8.91;100.00
7990;BME280;4040;42.848;23.034;2022-09-14T01:59:02;94884.97;;;8.72;100.00
7990;BME280;4040;42.848;23.034;2022-09-14T02:04:57;94882.66;;;8.67;100.00
7990;BME280;4040;42.848;23.034;2022-09-14T02:10:49;94878.06;;;8.57;100.00
7990;BME280;4040;42.848;23.034;2022-09-14T02:16:37;94871.94;;;8.53;100.00
7990;BME280;4040;42.848;23.034;2022-09-14T02:22:30;94883.44;;;8.57;100.00
7990;BME280;4040;42.848;23.034;2022-09-14T02:28:19;94880.72;;;8.78;100.00
7990;BME280;4040;42.848;23.034;2022-09-14T02:34:14;94897.97;;;8.87;100.00
7990;BME280;4040;42.848;23.034;2022-09-14T02:40:15;94885.75;;;8.48;100.00
7990;BME280;4040;42.848;23.034;2022-09-14T02:46:12;94885.75;;;8.55;100.00
7990;BME280;4040;42.848;23.034;2022-09-14T02:52:13;94891.88;;;8.73;100.00
7990;BME280;4040;42.848;23.034;2022-09-14T02:58:06;94883.81;;;8.59;100.00
7990;BME280;4040;42.848;23.034;2022-09-14T03:03:55;94885.38;;;8.42;100.00
7990;BME280;4040;42.848;23.034;2022-09-14T03:14:08;94855.88;;;8.32;100.00
7990;BME280;4040;42.848;23.034;2022-09-14T03:19:57;94882.72;;;8.32;100.00
7990;BME280;4040;42.848;23.034;2022-09-14T03:25:46;94858.94;;;8.30;100.00
7990;BME280;4040;42.848;23.034;2022-09-14T03:31:36;94891.16;;;8.41;100.00
7990;BME280;4040;42.848;23.034;2022-09-14T03:37:25;94865.09;;;8.31;100.00
7990;BME280;4040;42.848;23.034;2022-09-14T03:43:14;94887.28;;;8.28;100.00
7990;BME280;4040;42.848;23.034;2022-09-14T03:49:04;94896.84;;;8.15;100.00
7990;BME280;4040;42.848;23.034;2022-09-14T03:54:53;94885.72;;;7.88;100.00
7990;BME280;4040;42.848;23.034;2022-09-14T04:00:41;94895.72;;;8.02;100.00
7990;BME280;4040;42.848;23.034;2022-09-14T04:06:32;94897.22;;;7.99;100.00
7990;BME280;4040;42.848;23.034;2022-09-14T04:16:42;94883.41;;;7.87;100.00
7990;BME280;4040;42.848;23.034;2022-09-14T04:22:33;94891.88;;;8.13;100.00
7990;BME280;4040;42.848;23.034;2022-09-14T04:28:22;94893.78;;;8.06;100.00
7990;BME280;4040;42.848;23.034;2022-09-14T04:34:11;94894.97;;;8.40;100.00
7990;BME280;4040;42.848;23.034;2022-09-14T04:40:03;94898.75;;;8.67;100.00
7990;BME280;4040;42.848;23.034;2022-09-14T04:45:51;94897.22;;;8.73;100.00
7990;BME280;4040;42.848;23.034;2022-09-14T04:51:40;94913.25;;;9.11;100.00
7990;BME280;4040;42.848;23.034;2022-09-14T04:57:30;94911.63;;;9.31;100.00
7990;BME280;4040;42.848;23.034;2022-09-14T05:03:19;94910.88;;;10.02;100.00
7990;BME280;4040;42.848;23.034;2022-09-14T05:09:12;94909.25;;;12.50;100.00
7990;BME280;4040;42.848;23.034;2022-09-14T05:19:24;94884.16;;;18.66;100.00
7990;BME280;4040;42.848;23.034;2022-09-14T05:25:12;94724.28;;;19.97;81.70
7990;BME280;4040;42.848;23.034;2022-09-14T05:31:03;94909.38;;;23.32;63.71
7990;BME280;4040;42.848;23.034;2022-09-14T05:36:54;94903.09;;;23.91;54.33
7990;BME280;4040;42.848;23.034;2022-09-14T05:42:42;94903.41;;;23.99;53.73
7990;BME280;4040;42.848;23.034;2022-09-14T05:48:32;94895.78;;;25.49;48.71
7990;BME280;4040;42.848;23.034;2022-09-14T05:54:22;94894.13;;;25.79;50.20
7990;BME280;4040;42.848;23.034;2022-09-14T06:00:13;94890.72;;;27.26;47.57
7990;BME280;4040;42.848;23.034;2022-09-14T06:06:04;94886.59;;;29.11;42.35
7990;BME280;4040;42.848;23.034;2022-09-14T06:11:54;94874.56;;;30.12;40.30
7990;BME280;4040;42.848;23.034;2022-09-14T06:22:05;94885.88;;;31.92;35.47
7990;BME280;4040;42.848;23.034;2022-09-14T06:27:55;94889.06;;;32.75;34.21
7990;BME280;4040;42.848;23.034;2022-09-14T06:33:43;94881.53;;;32.83;35.26
7990;BME280;4040;42.848;23.034;2022-09-14T06:39:32;94881.41;;;32.89;36.87
7990;BME280;4040;42.848;23.034;2022-09-14T06:45:22;94884.59;;;34.55;30.00
7990;BME280;4040;42.848;23.034;2022-09-14T06:51:13;94880.25;;;33.89;31.86
7990;BME280;4040;42.848;23.034;2022-09-14T06:57:02;94855.13;;;34.54;31.27
7990;BME280;4040;42.848;23.034;2022-09-14T07:02:54;94869.38;;;35.16;29.21
7990;BME280;4040;42.848;23.034;2022-09-14T07:08:43;94874.72;;;36.43;29.49
7990;BME280;4040;42.848;23.034;2022-09-14T07:14:32;94867.47;;;35.71;29.53
7990;BME280;4040;42.848;23.034;2022-09-14T07:24:46;94866.31;;;38.17;26.76
7990;BME280;4040;42.848;23.034;2022-09-14T07:30:35;94855.00;;;37.90;25.93
7990;BME280;4040;42.848;23.034;2022-09-14T07:36:25;94855.16;;;39.05;26.10
7990;BME280;4040;42.848;23.034;2022-09-14T07:42:15;94859.97;;;37.99;26.52
7990;BME280;4040;42.848;23.034;2022-09-14T07:48:04;94858.84;;;38.46;24.90
7990;BME280;4040;42.848;23.034;2022-09-14T07:53:53;94865.03;;;36.37;26.96
7990;BME280;4040;42.848;23.034;2022-09-14T07:59:43;94866.38;;;37.17;25.99
7990;BME280;4040;42.848;23.034;2022-09-14T08:05:32;94877.09;;;38.97;24.56
7990;BME280;4040;42.848;23.034;2022-09-14T08:11:22;94874.22;;;40.64;25.89
7990;BME280;4040;42.848;23.034;2022-09-14T08:17:12;94881.94;;;39.78;23.50
7990;BME280;4040;42.848;23.034;2022-09-14T08:27:22;94861.91;;;37.14;25.48
7990;BME280;4040;42.848;23.034;2022-09-14T08:33:12;94852.16;;;37.15;27.84
7990;BME280;4040;42.848;23.034;2022-09-14T08:39:02;94848.84;;;36.20;25.87
7990;BME280;4040;42.848;23.034;2022-09-14T08:44:54;94835.19;;;36.17;26.96
7990;BME280;4040;42.848;23.034;2022-09-14T08:50:46;94840.19;;;39.48;26.75
7990;BME280;4040;42.848;23.034;2022-09-14T08:56:39;94842.22;;;38.93;25.36
7990;BME280;4040;42.848;23.034;2022-09-14T09:02:38;94838.06;;;38.94;24.79
7990;BME280;4040;42.848;23.034;2022-09-14T09:08:35;94831.25;;;43.08;21.00
7990;BME280;4040;42.848;23.034;2022-09-14T09:14:29;94829.34;;;38.03;26.10
7990;BME280;4040;42.848;23.034;2022-09-14T09:20:22;94834.94;;;41.69;23.15
7990;BME280;4040;42.848;23.034;2022-09-14T09:30:34;94803.75;;;42.43;19.35
7990;BME280;4040;42.848;23.034;2022-09-14T09:36:23;94814.84;;;40.15;24.30
7990;BME280;4040;42.848;23.034;2022-09-14T09:42:14;94805.19;;;39.89;23.87
7990;BME280;4040;42.848;23.034;2022-09-14T09:48:09;94802.44;;;40.98;21.74
7990;BME280;4040;42.848;23.034;2022-09-14T09:54:04;94796.59;;;39.04;25.45
7990;BME280;4040;42.848;23.034;2022-09-14T10:00:17;94791.81;;;40.18;22.76
7990;BME280;4040;42.848;23.034;2022-09-14T10:06:11;94791.84;;;39.80;24.18
7990;BME280;4040;42.848;23.034;2022-09-14T10:12:02;94779.59;;;38.75;24.34
7990;BME280;4040;42.848;23.034;2022-09-14T10:18:03;94784.81;;;39.43;25.81
7990;BME280;4040;42.848;23.034;2022-09-14T10:24:15;94776.59;;;39.09;27.32
7990;BME280;4040;42.848;23.034;2022-09-14T10:30:11;94778.28;;;39.31;25.02
7990;BME280;4040;42.848;23.034;2022-09-14T10:36:07;94771.81;;;39.86;23.73
7990;BME280;4040;42.848;23.034;2022-09-14T10:42:03;94764.72;;;38.65;25.45
7990;BME280;4040;42.848;23.034;2022-09-14T10:48:26;94771.72;;;37.78;24.21
7990;BME280;4040;42.848;23.034;2022-09-14T10:54:35;94760.97;;;37.33;23.21
7990;BME280;4040;42.848;23.034;2022-09-14T11:00:35;94758.00;;;37.14;25.82
7990;BME280;4040;42.848;23.034;2022-09-14T11:06:39;94747.88;;;32.11;30.13
7990;BME280;4040;42.848;23.034;2022-09-14T11:12:34;94757.63;;;28.99;34.51
7990;BME280;4040;42.848;23.034;2022-09-14T11:18:35;94753.28;;;28.26;35.52
7990;BME280;4040;42.848;23.034;2022-09-14T11:24:34;94734.41;;;27.95;38.71
7990;BME280;4040;42.848;23.034;2022-09-14T11:30:32;94734.78;;;28.10;37.79
7990;BME280;4040;42.848;23.034;2022-09-14T11:36:28;94722.47;;;28.11;37.15
7990;BME280;4040;42.848;23.034;2022-09-14T11:42:22;94715.50;;;27.99;34.67
7990;BME280;4040;42.848;23.034;2022-09-14T11:48:16;94714.00;;;27.63;36.13
7990;BME280;4040;42.848;23.034;2022-09-14T11:54:12;94712.34;;;27.84;38.57
7990;BME280;4040;42.848;23.034;2022-09-14T12:00:05;94707.38;;;27.72;36.92
7990;BME280;4040;42.848;23.034;2022-09-14T12:12:49;94704.97;;;27.57;37.76
7990;BME280;4040;42.848;23.034;2022-09-14T12:18:39;94700.31;;;27.41;38.52
7990;BME280;4040;42.848;23.034;2022-09-14T12:24:30;94694.47;;;27.50;37.49
7990;BME280;4040;42.848;23.034;2022-09-14T12:31:06;94693.50;;;27.42;37.70
7990;BME280;4040;42.848;23.034;2022-09-14T12:36:59;94700.13;;;27.34;38.29
7990;BME280;4040;42.848;23.034;2022-09-14T12:42:49;94693.59;;;27.31;39.45
7990;BME280;4040;42.848;23.034;2022-09-14T12:49:03;94704.56;;;27.42;42.97
7990;BME280;4040;42.848;23.034;2022-09-14T12:55:19;94700.88;;;27.69;39.49
7990;BME280;4040;42.848;23.034;2022-09-14T13:01:21;94697.84;;;27.67;39.48
7990;BME280;4040;42.848;23.034;2022-09-14T13:07:17;94701.38;;;27.73;41.19
7990;BME280;4040;42.848;23.034;2022-09-14T13:13:14;94699.34;;;27.68;41.86
7990;BME280;4040;42.848;23.034;2022-09-14T13:19:05;94697.78;;;27.78;41.02
7990;BME280;4040;42.848;23.034;2022-09-14T13:24:55;94704.97;;;27.57;40.74
7990;BME280;4040;42.848;23.034;2022-09-14T13:30:53;94698.25;;;27.47;42.34
7990;BME280;4040;42.848;23.034;2022-09-14T13:36:43;94689.47;;;27.43;43.48
7990;BME280;4040;42.848;23.034;2022-09-14T13:42:33;94685.44;;;27.44;42.94
7990;BME280;4040;42.848;23.034;2022-09-14T13:48:23;94695.41;;;27.58;43.54
7990;BME280;4040;42.848;23.034;2022-09-14T13:54:17;94675.19;;;27.74;42.51
7990;BME280;4040;42.848;23.034;2022-09-14T14:00:18;94680.97;;;27.71;43.76
7990;BME280;4040;42.848;23.034;2022-09-14T14:06:21;94678.25;;;27.65;41.18
7990;BME280;4040;42.848;23.034;2022-09-14T14:12:19;94674.44;;;27.68;44.24
7990;BME280;4040;42.848;23.034;2022-09-14T14:24:35;94666.88;;;27.39;43.96
7990;BME280;4040;42.848;23.034;2022-09-14T14:30:23;94652.59;;;27.30;44.50
7990;BME280;4040;42.848;23.034;2022-09-14T14:36:14;94646.09;;;27.27;44.68
7990;BME280;4040;42.848;23.034;2022-09-14T14:42:05;94649.13;;;27.24;44.09
7990;BME280;4040;42.848;23.034;2022-09-14T14:47:55;94654.97;;;27.09;44.08
7990;BME280;4040;42.848;23.034;2022-09-14T14:53:43;94652.06;;;26.85;45.76
7990;BME280;4040;42.848;23.034;2022-09-14T14:59:33;94653.16;;;26.71;46.12
7990;BME280;4040;42.848;23.034;2022-09-14T15:05:22;94644.19;;;26.43;46.67
7990;BME280;4040;42.848;23.034;2022-09-14T15:11:14;94636.72;;;26.28;45.62
7990;BME280;4040;42.848;23.034;2022-09-14T15:17:05;94633.22;;;26.22;47.79
7990;BME280;4040;42.848;23.034;2022-09-14T15:22:54;94640.00;;;26.21;47.10
7990;BME280;4040;42.848;23.034;2022-09-14T15:33:06;94628.00;;;25.91;49.00
7990;BME280;4040;42.848;23.034;2022-09-14T15:38:55;94633.28;;;25.72;48.54
7990;BME280;4040;42.848;23.034;2022-09-14T15:44:44;94625.00;;;25.67;50.43
7990;BME280;4040;42.848;23.034;2022-09-14T15:50:39;94622.50;;;25.47;51.32
7990;BME280;4040;42.848;23.034;2022-09-14T15:56:28;94614.97;;;25.20;50.92
7990;BME280;4040;42.848;23.034;2022-09-14T16:02:17;94615.91;;;24.95;49.72
7990;BME280;4040;42.848;23.034;2022-09-14T16:08:07;94622.13;;;24.68;50.71
7990;BME280;4040;42.848;23.034;2022-09-14T16:13:56;94626.13;;;24.67;50.91
7990;BME280;4040;42.848;23.034;2022-09-14T16:19:45;94624.00;;;24.40;51.66
7990;BME280;4040;42.848;23.034;2022-09-14T16:25:37;94628.28;;;23.99;60.04
7990;BME280;4040;42.848;23.034;2022-09-14T16:35:48;94622.31;;;23.33;83.99
7990;BME280;4040;42.848;23.034;2022-09-14T16:41:38;94611.00;;;23.00;92.22
7990;BME280;4040;42.848;23.034;2022-09-14T16:47:28;94618.09;;;22.61;95.38
7990;BME280;4040;42.848;23.034;2022-09-14T16:53:18;94617.03;;;22.19;100.00
7990;BME280;4040;42.848;23.034;2022-09-14T16:59:09;94622.81;;;21.66;100.00
7990;BME280;4040;42.848;23.034;2022-09-14T17:04:58;94629.66;;;21.13;100.00
7990;BME280;4040;42.848;23.034;2022-09-14T17:10:48;94632.72;;;20.63;100.00
7990;BME280;4040;42.848;23.034;2022-09-14T17:16:39;94630.44;;;20.23;100.00
7990;BME280;4040;42.848;23.034;2022-09-14T17:22:28;94642.22;;;20.15;100.00
7990;BME280;4040;42.848;23.034;2022-09-14T17:28:18;94649.66;;;19.82;100.00
7990;BME280;4040;42.848;23.034;2022-09-14T17:38:33;94649.19;;;19.60;100.00
7990;BME280;4040;42.848;23.034;2022-09-14T17:44:22;94635.28;;;19.49;100.00
7990;BME280;4040;42.848;23.034;2022-09-14T17:50:12;94641.69;;;19.37;100.00
7990;BME280;4040;42.848;23.034;2022-09-14T17:56:03;94645.84;;;19.05;100.00
7990;BME280;4040;42.848;23.034;2022-09-14T18:01:52;94664.97;;;18.87;100.00
7990;BME280;4040;42.848;23.034;2022-09-14T18:07:41;94670.59;;;18.93;100.00
7990;BME280;4040;42.848;23.034;2022-09-14T18:13:31;94687.00;;;18.84;100.00
7990;BME280;4040;42.848;23.034;2022-09-14T18:19:20;94689.28;;;18.67;100.00
7990;BME280;4040;42.848;23.034;2022-09-14T18:25:09;94686.06;;;18.51;100.00
7990;BME280;4040;42.848;23.034;2022-09-14T18:31:00;94697.47;;;18.49;100.00
7990;BME280;4040;42.848;23.034;2022-09-14T18:41:11;94714.75;;;17.98;100.00
7990;BME280;4040;42.848;23.034;2022-09-14T18:47:02;94736.59;;;18.16;100.00
7990;BME280;4040;42.848;23.034;2022-09-14T18:52:50;94732.81;;;18.22;100.00
7990;BME280;4040;42.848;23.034;2022-09-14T18:58:41;94740.56;;;18.24;100.00
7990;BME280;4040;42.848;23.034;2022-09-14T19:04:32;94731.53;;;18.36;100.00
7990;BME280;4040;42.848;23.034;2022-09-14T19:10:20;94732.25;;;18.27;100.00
7990;BME280;4040;42.848;23.034;2022-09-14T19:16:11;94718.72;;;18.15;100.00
7990;BME280;4040;42.848;23.034;2022-09-14T19:22:05;94714.28;;;17.91;100.00
7990;BME280;4040;42.848;23.034;2022-09-14T19:27:54;94739.75;;;17.97;100.00
7990;BME280;4040;42.848;23.034;2022-09-14T19:33:43;94739.88;;;17.93;100.00
7990;BME280;4040;42.848;23.034;2022-09-14T19:43:55;94754.63;;;17.74;100.00
7990;BME280;4040;42.848;23.034;2022-09-14T19:49:45;94767.59;;;17.61;100.00
7990;BME280;4040;42.848;23.034;2022-09-14T19:55:34;94768.50;;;17.58;100.00
7990;BME280;4040;42.848;23.034;2022-09-14T20:01:26;94776.59;;;17.49;100.00
7990;BME280;4040;42.848;23.034;2022-09-14T20:07:19;94790.22;;;17.49;100.00
7990;BME280;4040;42.848;23.034;2022-09-14T20:13:18;94787.22;;;17.35;100.00
7990;BME280;4040;42.848;23.034;2022-09-14T20:19:10;94785.75;;;17.64;100.00
7990;BME280;4040;42.848;23.034;2022-09-14T20:24:59;94785.50;;;17.71;100.00
7990;BME280;4040;42.848;23.034;2022-09-14T20:30:56;94766.59;;;17.46;100.00
7990;BME280;4040;42.848;23.034;2022-09-14T20:36:46;94786.84;;;17.45;100.00
7990;BME280;4040;42.848;23.034;2022-09-14T20:46:57;94750.63;;;17.14;100.00
7990;BME280;4040;42.848;23.034;2022-09-14T20:52:47;94772.31;;;16.96;100.00
7990;BME280;4040;42.848;23.034;2022-09-14T20:58:36;94764.38;;;16.89;100.00
7990;BME280;4040;42.848;23.034;2022-09-14T21:04:25;94772.28;;;16.75;100.00
7990;BME280;4040;42.848;23.034;2022-09-14T21:10:15;94777.84;;;16.71;100.00
7990;BME280;4040;42.848;23.034;2022-09-14T21:16:09;94769.34;;;16.69;100.00
7990;BME280;4040;42.848;23.034;2022-09-14T21:21:58;94761.13;;;16.60;100.00
7990;BME280;4040;42.848;23.034;2022-09-14T21:27:48;94761.59;;;16.46;100.00
7990;BME280;4040;42.848;23.034;2022-09-14T21:33:39;94767.59;;;16.29;100.00
7990;BME280;4040;42.848;23.034;2022-09-14T21:39:28;94772.06;;;16.23;100.00
7990;BME280;4040;42.848;23.034;2022-09-14T21:49:40;94757.31;;;16.11;100.00
7990;BME280;4040;42.848;23.034;2022-09-14T21:55:28;94752.09;;;16.17;100.00
7990;BME280;4040;42.848;23.034;2022-09-14T22:08:30;94769.66;;;16.50;100.00
7990;BME280;4040;42.848;23.034;2022-09-14T22:14:20;94759.88;;;16.74;100.00
7990;BME280;4040;42.848;23.034;2022-09-14T22:26:18;94778.88;;;17.29;100.00
7990;BME280;4040;42.848;23.034;2022-09-14T22:32:08;94789.41;;;17.18;100.00
7990;BME280;4040;42.848;23.034;2022-09-14T22:37:58;94782.06;;;17.06;100.00
7990;BME280;4040;42.848;23.034;2022-09-14T22:43:49;94780.13;;;16.94;100.00
7990;BME280;4040;42.848;23.034;2022-09-14T22:49:40;94776.09;;;16.77;100.00
7990;BME280;4040;42.848;23.034;2022-09-14T22:55:29;94778.31;;;16.57;100.00
7990;BME280;4040;42.848;23.034;2022-09-14T23:01:20;94778.53;;;16.50;100.00
7990;BME280;4040;42.848;23.034;2022-09-14T23:07:09;94788.13;;;16.42;100.00
7990;BME280;4040;42.848;23.034;2022-09-14T23:12:58;94781.00;;;16.23;100.00
7990;BME280;4040;42.848;23.034;2022-09-14T23:18:51;94781.22;;;16.16;100.00
7990;BME280;4040;42.848;23.034;2022-09-14T23:24:40;94779.69;;;16.15;100.00
7990;BME280;4040;42.848;23.034;2022-09-14T23:30:29;94778.50;;;16.04;100.00
7990;BME280;4040;42.848;23.034;2022-09-14T23:36:20;94784.59;;;15.95;100.00
7990;BME280;4040;42.848;23.034;2022-09-14T23:42:09;94777.50;;;16.10;100.00
7990;BME280;4040;42.848;23.034;2022-09-14T23:47:58;94768.56;;;16.47;100.00
7990;BME280;4040;42.848;23.034;2022-09-14T23:53:48;94767.59;;;16.75;100.00
7990;BME280;4040;42.848;23.034;2022-09-14T23:59:37;94727.47;;;16.45;100.00
